createdAt,value
2023-07-01T00:02:25.777Z,99257.50
2023-07-01T00:04:52.812Z,99251.41
2023-07-01T00:07:19.726Z,99250.31
2023-07-01T00:09:47.169Z,99245.91
2023-07-01T00:12:14.076Z,99254.53
2023-07-01T00:14:40.943Z,99254.47
2023-07-01T00:17:10.848Z,99251.91
2023-07-01T00:19:37.805Z,99256.31
2023-07-01T00:22:05.505Z,99262.41
2023-07-01T00:24:32.329Z,99257.16
2023-07-01T00:26:59.337Z,99257.16
2023-07-01T00:29:26.319Z,99251.06
2023-07-01T00:31:53.291Z,99249.31
2023-07-01T00:34:20.679Z,99253.69
2023-07-01T00:36:47.909Z,99253.78
2023-07-01T00:39:14.940Z,99249.53
2023-07-01T00:41:41.818Z,99241.78
2023-07-01T00:44:08.847Z,99241.91
2023-07-01T00:46:35.819Z,99237.69
2023-07-01T00:49:02.884Z,99237.91
2023-07-01T00:51:30.192Z,99245.03
2023-07-01T00:53:57.167Z,99245.16
2023-07-01T00:56:25.136Z,99246.16
2023-07-01T00:58:53.348Z,99239.38
2023-07-01T01:01:24.805Z,99234.38
2023-07-01T01:04:01.997Z,99236.31
2023-07-01T01:06:54.854Z,99231.16
2023-07-01T01:09:43.558Z,99231.28
2023-07-01T01:12:12.855Z,99232.38
2023-07-01T01:14:40.041Z,99231.63
2023-07-01T01:17:12.225Z,99233.47
2023-07-01T01:19:46.618Z,99237.06
2023-07-01T01:22:17.113Z,99230.22
2023-07-01T01:24:48.371Z,99234.66
2023-07-01T01:27:19.684Z,99234.66
2023-07-01T01:29:46.813Z,99220.78
2023-07-01T01:32:13.738Z,99231.31
2023-07-01T01:34:40.687Z,99232.16
2023-07-01T01:37:15.973Z,99227.00
2023-07-01T01:39:48.703Z,99221.78
2023-07-01T01:42:23.505Z,99215.66
2023-07-01T01:44:53.629Z,99220.16
2023-07-01T01:47:22.494Z,99219.34
2023-07-01T01:49:52.983Z,99218.66
2023-07-01T01:52:19.946Z,99227.41
2023-07-01T01:54:48.077Z,99223.19
2023-07-01T01:57:15.745Z,99226.75
2023-07-01T01:59:44.266Z,99227.72
2023-07-01T02:02:11.550Z,99224.28
2023-07-01T02:04:38.871Z,99217.41
2023-07-01T02:07:06.428Z,99226.28
2023-07-01T02:09:33.802Z,99216.78
2023-07-01T02:12:00.670Z,99219.47
2023-07-01T02:14:27.589Z,99225.69
2023-07-01T02:16:55.806Z,99220.47
2023-07-01T02:19:23.263Z,99222.25
2023-07-01T02:21:50.276Z,99221.41
2023-07-01T02:24:17.292Z,99217.06
2023-07-01T02:26:46.342Z,99217.00
2023-07-01T02:29:13.382Z,99218.72
2023-07-01T02:31:40.304Z,99216.09
2023-07-01T02:34:07.593Z,99211.69
2023-07-01T02:36:34.534Z,99214.31
2023-07-01T02:39:01.540Z,99216.06
2023-07-01T02:41:28.407Z,99211.72
2023-07-01T02:43:55.754Z,99213.50
2023-07-01T02:46:22.716Z,99204.69
2023-07-01T02:48:50.219Z,99203.03
2023-07-01T02:51:18.094Z,99199.69
2023-07-01T02:53:45.095Z,99205.84
2023-07-01T02:56:12.192Z,99202.50
2023-07-01T02:58:39.114Z,99204.28
2023-07-01T03:01:06.405Z,99214.81
2023-07-01T03:03:33.314Z,99207.91
2023-07-01T03:06:00.392Z,99220.13
2023-07-01T03:08:27.422Z,99208.81
2023-07-01T03:10:54.402Z,99202.69
2023-07-01T03:13:21.413Z,99202.66
2023-07-01T03:15:48.415Z,99200.78
2023-07-01T03:18:15.310Z,99207.91
2023-07-01T03:20:42.288Z,99203.28
2023-07-01T03:23:09.712Z,99219.13
2023-07-01T03:25:37.245Z,99205.25
2023-07-01T03:28:04.528Z,99216.34
2023-07-01T03:30:32.345Z,99209.09
2023-07-01T03:32:59.816Z,99217.28
2023-07-01T03:35:26.986Z,99210.28
2023-07-01T03:37:54.013Z,99209.56
2023-07-01T03:40:21.128Z,99220.38
2023-07-01T03:42:48.206Z,99215.59
2023-07-01T03:45:15.139Z,99213.25
2023-07-01T03:47:47.143Z,99216.06
2023-07-01T03:50:14.310Z,99217.69
2023-07-01T03:52:42.767Z,99206.25
2023-07-01T03:55:15.524Z,99204.38
2023-07-01T03:57:42.637Z,99199.97
2023-07-01T04:00:18.989Z,99207.09
2023-07-01T04:02:48.132Z,99207.91
2023-07-01T04:05:15.607Z,99208.22
2023-07-01T04:07:44.186Z,99202.97
2023-07-01T04:10:11.934Z,99205.94
2023-07-01T04:12:40.025Z,99207.28
2023-07-01T04:15:11.441Z,99206.44
2023-07-01T04:17:41.958Z,99215.53
2023-07-01T04:20:10.886Z,99203.59
2023-07-01T04:22:38.131Z,99207.03
2023-07-01T04:25:05.512Z,99211.75
2023-07-01T04:27:33.399Z,99205.00
2023-07-01T04:30:00.564Z,99212.34
2023-07-01T04:32:27.569Z,99212.56
2023-07-01T04:34:55.672Z,99211.59
2023-07-01T04:37:23.046Z,99202.66
2023-07-01T04:39:49.948Z,99194.06
2023-07-01T04:42:17.040Z,99199.91
2023-07-01T04:44:44.597Z,99203.03
2023-07-01T04:47:12.700Z,99209.38
2023-07-01T04:49:39.662Z,99203.53
2023-07-01T04:52:07.058Z,99200.41
2023-07-01T04:54:34.102Z,99207.13
2023-07-01T04:57:01.177Z,99203.50
2023-07-01T04:59:28.240Z,99196.38
2023-07-01T05:01:55.294Z,99202.59
2023-07-01T05:04:23.751Z,99186.28
2023-07-01T05:06:50.759Z,99191.28
2023-07-01T05:09:17.791Z,99189.31
2023-07-01T05:11:45.636Z,99186.63
2023-07-01T05:14:12.607Z,99197.34
2023-07-01T05:16:40.056Z,99194.69
2023-07-01T05:19:07.280Z,99188.09
2023-07-01T05:21:35.028Z,99181.69
2023-07-01T05:24:02.141Z,99170.19
2023-07-01T05:26:29.127Z,99171.06
2023-07-01T05:28:58.399Z,99173.69
2023-07-01T05:31:25.477Z,99175.81
2023-07-01T05:33:52.510Z,99172.56
2023-07-01T05:36:19.604Z,99174.91
2023-07-01T05:38:46.923Z,99167.81
2023-07-01T05:41:15.135Z,99175.97
2023-07-01T05:43:42.145Z,99180.81
2023-07-01T05:46:09.209Z,99175.22
2023-07-01T05:48:36.081Z,99185.22
2023-07-01T05:51:03.091Z,99183.53
2023-07-01T05:53:29.998Z,99183.19
2023-07-01T05:55:57.074Z,99183.06
2023-07-01T05:58:24.014Z,99183.31
2023-07-01T06:00:51.451Z,99182.69
2023-07-01T06:03:18.462Z,99172.00
2023-07-01T06:05:45.428Z,99179.53
2023-07-01T06:08:12.522Z,99176.66
2023-07-01T06:10:39.460Z,99177.44
2023-07-01T06:13:06.499Z,99183.25
2023-07-01T06:15:33.397Z,99184.03
2023-07-01T06:18:00.647Z,99172.13
2023-07-01T06:20:27.600Z,99174.75
2023-07-01T06:22:54.557Z,99170.59
2023-07-01T06:25:21.433Z,99173.34
2023-07-01T06:27:48.375Z,99171.16
2023-07-01T06:30:16.636Z,99173.03
2023-07-01T06:32:43.915Z,99168.94
2023-07-01T06:35:10.938Z,99171.06
2023-07-01T06:37:37.872Z,99166.75
2023-07-01T06:40:05.736Z,99170.47
2023-07-01T06:42:32.791Z,99170.91
2023-07-01T06:44:59.710Z,99172.69
2023-07-01T06:47:26.766Z,99170.78
2023-07-01T06:49:53.806Z,99173.34
2023-07-01T06:52:20.740Z,99168.91
2023-07-01T06:54:48.847Z,99169.41
2023-07-01T06:57:16.217Z,99176.88
2023-07-01T06:59:43.300Z,99174.31
2023-07-01T07:02:10.344Z,99168.53
2023-07-01T07:04:38.652Z,99170.25
2023-07-01T07:07:05.998Z,99168.97
2023-07-01T07:09:33.346Z,99165.84
2023-07-01T07:12:00.253Z,99174.75
2023-07-01T07:14:27.104Z,99172.81
2023-07-01T07:16:54.287Z,99172.72
2023-07-01T07:19:21.216Z,99166.06
2023-07-01T07:21:48.248Z,99163.56
2023-07-01T07:24:15.506Z,99167.16
2023-07-01T07:26:43.617Z,99172.47
2023-07-01T07:29:11.272Z,99166.81
2023-07-01T07:31:38.246Z,99155.34
2023-07-01T07:34:05.435Z,99164.06
2023-07-01T07:36:32.397Z,99159.44
2023-07-01T07:38:59.359Z,99155.38
2023-07-01T07:41:26.354Z,99154.84
2023-07-01T07:43:53.371Z,99159.06
2023-07-01T07:46:20.274Z,99159.44
2023-07-01T07:48:47.289Z,99156.75
2023-07-01T07:51:14.183Z,99157.41
2023-07-01T07:53:41.728Z,99157.28
2023-07-01T07:56:08.760Z,99159.25
2023-07-01T07:58:35.785Z,99159.25
2023-07-01T08:01:03.229Z,99154.03
2023-07-01T08:03:30.292Z,99161.81
2023-07-01T08:05:57.374Z,99165.59
2023-07-01T08:08:24.455Z,99166.31
2023-07-01T08:10:51.737Z,99164.31
2023-07-01T08:13:18.822Z,99157.41
2023-07-01T08:15:46.445Z,99152.28
2023-07-01T08:18:13.402Z,99154.13
2023-07-01T08:20:40.345Z,99157.41
2023-07-01T08:23:07.307Z,99148.78
2023-07-01T08:25:34.285Z,99160.75
2023-07-01T08:28:01.287Z,99145.53
2023-07-01T08:30:28.402Z,99151.53
2023-07-01T08:33:36.323Z,99150.47
2023-07-01T08:36:04.021Z,99152.91
2023-07-01T08:38:30.923Z,99138.34
2023-07-01T08:41:04.076Z,99146.47
2023-07-01T08:43:31.652Z,99140.94
2023-07-01T08:46:04.442Z,99141.16
2023-07-01T08:48:34.039Z,99131.72
2023-07-01T08:51:29.431Z,99138.97
2023-07-01T08:53:58.520Z,99124.72
2023-07-01T08:56:25.483Z,99138.28
2023-07-01T08:58:52.591Z,99137.97
2023-07-01T09:01:19.974Z,99130.31
2023-07-01T09:03:48.378Z,99127.41
2023-07-01T09:06:15.576Z,99127.66
2023-07-01T09:08:42.670Z,99112.56
2023-07-01T09:11:18.374Z,99116.56
2023-07-01T09:13:45.397Z,99097.44
2023-07-01T09:16:12.643Z,99108.69
2023-07-01T09:18:44.862Z,99110.38
2023-07-01T09:21:20.838Z,99106.59
2023-07-01T09:23:48.456Z,99104.31
2023-07-01T09:26:18.778Z,99102.63
2023-07-01T09:28:48.594Z,99100.25
2023-07-01T09:31:17.058Z,99095.03
2023-07-01T09:34:06.762Z,99104.56
2023-07-01T09:36:33.840Z,99093.81
2023-07-01T09:39:02.356Z,99092.38
2023-07-01T09:41:30.191Z,99092.63
2023-07-01T09:43:59.062Z,99093.81
2023-07-01T09:46:41.604Z,99094.06
2023-07-01T09:49:08.858Z,99087.09
2023-07-01T09:51:50.228Z,99094.41
2023-07-01T09:54:26.722Z,99083.66
2023-07-01T09:56:55.459Z,99080.78
2023-07-01T09:59:22.484Z,99086.09
2023-07-01T10:01:52.098Z,99088.25
2023-07-01T10:04:23.012Z,99089.19
2023-07-01T10:06:50.358Z,99077.22
2023-07-01T10:09:17.249Z,99077.00
2023-07-01T10:11:44.505Z,99069.53
2023-07-01T10:14:11.672Z,99064.03
2023-07-01T10:16:48.435Z,99075.06
2023-07-01T10:19:35.984Z,99064.81
2023-07-01T10:22:28.149Z,99066.72
2023-07-01T10:25:04.818Z,99060.84
2023-07-01T10:28:11.699Z,99056.97
2023-07-01T10:31:14.150Z,99055.41
2023-07-01T10:33:49.414Z,99041.50
2023-07-01T10:36:18.761Z,99041.41
2023-07-01T10:38:46.009Z,99047.75
2023-07-01T10:41:12.886Z,99048.09
2023-07-01T10:43:40.469Z,99044.63
2023-07-01T10:46:10.004Z,99036.16
2023-07-01T10:48:38.710Z,99026.97
2023-07-01T10:51:07.320Z,99029.16
2023-07-01T10:54:04.740Z,99027.88
2023-07-01T10:56:33.994Z,99013.03
2023-07-01T10:59:24.518Z,99011.66
2023-07-01T11:02:01.604Z,99010.53
2023-07-01T11:05:09.823Z,99018.34
2023-07-01T11:07:42.957Z,99011.06
2023-07-01T11:10:10.547Z,99012.84
2023-07-01T11:12:37.514Z,99002.81
2023-07-01T11:15:04.714Z,99006.44
2023-07-01T11:17:31.593Z,99002.09
2023-07-01T11:19:59.483Z,98997.44
2023-07-01T11:22:26.282Z,98996.53
2023-07-01T11:24:53.172Z,98991.78
2023-07-01T11:27:22.494Z,98994.56
2023-07-01T11:29:49.819Z,98984.28
2023-07-01T11:32:18.407Z,98982.75
2023-07-01T11:34:53.134Z,98988.91
2023-07-01T11:37:25.819Z,98989.81
2023-07-01T11:39:54.412Z,98983.47
2023-07-01T11:42:21.573Z,98969.22
2023-07-01T11:44:48.623Z,98973.97
2023-07-01T11:47:16.326Z,98973.78
2023-07-01T11:49:43.683Z,98974.31
2023-07-01T11:52:10.562Z,98967.13
2023-07-01T11:54:48.000Z,98980.13
2023-07-01T11:57:21.732Z,98972.69
2023-07-01T11:59:59.419Z,98955.84
2023-07-01T12:02:28.336Z,98949.84
2023-07-01T12:04:55.376Z,98963.13
2023-07-01T12:07:22.296Z,98959.84
2023-07-01T12:09:49.273Z,98955.66
2023-07-01T12:12:37.617Z,98954.75
2023-07-01T12:15:12.813Z,98949.94
2023-07-01T12:17:39.824Z,98947.38
2023-07-01T12:20:10.529Z,98945.38
2023-07-01T12:22:38.785Z,98950.50
2023-07-01T12:25:06.388Z,98940.38
2023-07-01T12:27:34.426Z,98935.78
2023-07-01T12:30:01.243Z,98929.50
2023-07-01T12:32:28.153Z,98930.91
2023-07-01T12:34:56.902Z,98925.28
2023-07-01T12:37:24.245Z,98933.41
2023-07-01T12:39:54.973Z,98932.63
2023-07-01T12:42:22.814Z,98929.81
2023-07-01T12:44:49.691Z,98918.56
2023-07-01T12:47:16.578Z,98912.66
2023-07-01T12:49:43.394Z,98911.53
2023-07-01T12:52:10.442Z,98907.47
2023-07-01T12:54:37.377Z,98905.09
2023-07-01T12:57:04.842Z,98904.53
2023-07-01T12:59:31.804Z,98906.50
2023-07-01T13:01:58.646Z,98901.78
2023-07-01T13:04:27.043Z,98894.72
2023-07-01T13:06:54.094Z,98903.56
2023-07-01T13:09:36.115Z,98892.59
2023-07-01T13:12:04.285Z,98892.88
2023-07-01T13:14:31.923Z,98895.84
2023-07-01T13:16:58.778Z,98889.41
2023-07-01T13:19:25.644Z,98891.94
2023-07-01T13:21:52.862Z,98888.34
2023-07-01T13:24:19.705Z,98882.03
2023-07-01T13:26:48.246Z,98882.47
2023-07-01T13:29:20.125Z,98865.94
2023-07-01T13:31:48.627Z,98864.25
2023-07-01T13:34:17.889Z,98871.84
2023-07-01T13:36:45.690Z,98861.28
2023-07-01T13:39:17.784Z,98859.47
2023-07-01T13:41:44.581Z,98863.53
2023-07-01T13:44:23.636Z,98863.97
2023-07-01T13:46:51.948Z,98858.91
2023-07-01T13:49:26.845Z,98853.44
2023-07-01T13:51:54.981Z,98853.84
2023-07-01T13:54:24.579Z,98834.91
2023-07-01T13:56:52.828Z,98841.38
2023-07-01T13:59:21.119Z,98839.94
2023-07-01T14:02:03.343Z,98832.09
2023-07-01T14:04:33.087Z,98835.03
2023-07-01T14:07:01.226Z,98838.13
2023-07-01T14:09:30.097Z,98830.28
2023-07-01T14:11:57.277Z,98835.75
2023-07-01T14:14:32.095Z,98833.03
2023-07-01T14:16:59.630Z,98828.25
2023-07-01T14:19:27.964Z,98829.09
2023-07-01T14:21:56.683Z,98840.78
2023-07-01T14:24:29.367Z,98833.50
2023-07-01T14:26:58.864Z,98819.19
2023-07-01T14:29:26.512Z,98819.75
2023-07-01T14:31:56.018Z,98814.81
2023-07-01T14:34:33.321Z,98822.50
2023-07-01T14:37:01.041Z,98812.84
2023-07-01T14:39:39.566Z,98818.47
2023-07-01T14:42:06.876Z,98809.50
2023-07-01T14:44:33.994Z,98806.97
2023-07-01T14:47:01.241Z,98801.59
2023-07-01T14:49:28.012Z,98801.09
2023-07-01T14:51:54.854Z,98810.34
2023-07-01T14:54:21.794Z,98803.84
2023-07-01T14:56:52.205Z,98796.28
2023-07-01T14:59:19.217Z,98794.53
2023-07-01T15:01:46.197Z,98796.81
2023-07-01T15:04:13.997Z,98801.16
2023-07-01T15:06:40.950Z,98794.16
2023-07-01T15:09:09.799Z,98790.50
2023-07-01T15:11:38.531Z,98793.91
2023-07-01T15:14:05.276Z,98792.59
2023-07-01T15:16:32.271Z,98789.31
2023-07-01T15:18:59.164Z,98788.16
2023-07-01T15:21:26.096Z,98787.50
2023-07-01T15:23:52.921Z,98782.16
2023-07-01T15:26:19.760Z,98789.28
2023-07-01T15:28:46.590Z,98778.63
2023-07-01T15:31:13.524Z,98770.25
2023-07-01T15:33:40.365Z,98768.19
2023-07-01T15:36:07.330Z,98777.16
2023-07-01T15:38:35.086Z,98774.50
2023-07-01T15:41:02.779Z,98757.84
2023-07-01T15:43:29.769Z,98770.22
2023-07-01T15:45:56.625Z,98771.28
2023-07-01T15:48:25.573Z,98764.28
2023-07-01T15:50:53.153Z,98761.50
2023-07-01T15:53:21.325Z,98753.94
2023-07-01T15:55:50.098Z,98749.56
2023-07-01T15:58:19.437Z,98752.72
2023-07-01T16:00:46.718Z,98752.88
2023-07-01T16:03:13.824Z,98756.00
2023-07-01T16:05:40.594Z,98748.28
2023-07-01T16:08:12.886Z,98744.94
2023-07-01T16:10:39.909Z,98746.63
2023-07-01T16:13:07.449Z,98743.72
2023-07-01T16:16:01.261Z,98760.97
2023-07-01T16:18:46.821Z,98756.13
2023-07-01T16:21:14.104Z,98749.38
2023-07-01T16:23:51.390Z,98747.94
2023-07-01T16:26:29.452Z,98747.09
2023-07-01T16:28:56.747Z,98751.75
2023-07-01T16:31:28.874Z,98754.78
2023-07-01T16:33:57.196Z,98745.06
2023-07-01T16:36:26.906Z,98747.25
2023-07-01T16:39:00.662Z,98746.16
2023-07-01T16:41:30.231Z,98742.66
2023-07-01T16:43:57.133Z,98740.50
2023-07-01T16:46:35.334Z,98745.72
2023-07-01T16:49:05.416Z,98733.16
2023-07-01T16:51:32.725Z,98738.75
2023-07-01T16:54:40.720Z,98743.09
2023-07-01T16:57:11.663Z,98740.44
2023-07-01T16:59:47.710Z,98739.59
2023-07-01T17:02:48.519Z,98751.63
2023-07-01T17:05:15.511Z,98750.28
2023-07-01T17:07:43.121Z,98751.88
2023-07-01T17:10:35.799Z,98745.72
2023-07-01T17:13:02.857Z,98754.22
2023-07-01T17:15:33.091Z,98742.75
2023-07-01T17:18:00.328Z,98733.59
2023-07-01T17:20:27.166Z,98738.84
2023-07-01T17:22:54.182Z,98741.91
2023-07-01T17:25:21.435Z,98740.59
2023-07-01T17:27:48.362Z,98735.53
2023-07-01T17:30:15.313Z,98730.34
2023-07-01T17:32:42.230Z,98729.72
2023-07-01T17:35:17.789Z,98724.78
2023-07-01T17:37:48.493Z,98723.22
2023-07-01T17:40:16.559Z,98718.84
2023-07-01T17:42:43.486Z,98714.00
2023-07-01T17:45:10.940Z,98716.63
2023-07-01T17:47:37.743Z,98721.66
2023-07-01T17:50:19.921Z,98720.50
2023-07-01T17:52:49.484Z,98728.69
2023-07-01T17:55:16.615Z,98724.97
2023-07-01T17:57:55.299Z,98735.38
2023-07-01T18:00:23.921Z,98728.72
2023-07-01T18:02:50.862Z,98730.97
2023-07-01T18:05:18.169Z,98740.81
2023-07-01T18:07:45.131Z,98744.84
2023-07-01T18:10:12.431Z,98744.44
2023-07-01T18:12:39.973Z,98734.31
2023-07-01T18:17:38.474Z,98733.78
2023-07-01T18:20:06.177Z,98742.75
2023-07-01T18:22:33.162Z,98741.31
2023-07-01T18:24:59.926Z,98742.47
2023-07-01T18:27:26.840Z,98740.25
2023-07-01T18:29:53.809Z,98744.06
2023-07-01T18:32:20.786Z,98744.16
2023-07-01T18:34:47.796Z,98738.97
2023-07-01T18:37:14.642Z,98741.00
2023-07-01T18:39:41.733Z,98745.44
2023-07-01T18:42:10.331Z,98748.16
2023-07-01T18:44:38.317Z,98751.66
2023-07-01T18:47:05.787Z,98744.69
2023-07-01T18:49:32.926Z,98738.78
2023-07-01T18:52:03.112Z,98746.06
2023-07-01T18:54:31.207Z,98743.50
2023-07-01T18:56:58.144Z,98743.50
2023-07-01T18:59:25.058Z,98742.84
2023-07-01T19:01:51.928Z,98746.66
2023-07-01T19:04:18.928Z,98741.59
2023-07-01T19:06:45.921Z,98739.38
2023-07-01T19:09:12.692Z,98737.34
2023-07-01T19:11:39.909Z,98737.22
2023-07-01T19:14:06.599Z,98741.53
2023-07-01T19:16:33.636Z,98738.94
2023-07-01T19:19:00.471Z,98731.00
2023-07-01T19:21:27.331Z,98741.31
2023-07-01T19:23:54.281Z,98740.28
2023-07-01T19:26:21.293Z,98743.50
2023-07-01T19:28:48.094Z,98747.69
2023-07-01T19:31:16.800Z,98742.97
2023-07-01T19:33:43.588Z,98743.38
2023-07-01T19:36:10.446Z,98740.16
2023-07-01T19:38:37.386Z,98739.63
2023-07-01T19:41:04.431Z,98737.09
2023-07-01T19:43:31.740Z,98743.47
2023-07-01T19:45:58.679Z,98740.94
2023-07-01T19:48:25.571Z,98738.59
2023-07-01T19:50:52.476Z,98730.78
2023-07-01T19:53:19.359Z,98736.16
2023-07-01T19:55:47.021Z,98732.75
2023-07-01T19:58:16.145Z,98732.03
2023-07-01T20:00:43.186Z,98727.69
2023-07-01T20:03:10.234Z,98724.28
2023-07-01T20:05:43.253Z,98715.75
2023-07-01T20:08:11.021Z,98721.88
2023-07-01T20:10:38.498Z,98706.03
2023-07-01T20:13:06.249Z,98710.38
2023-07-01T20:15:34.595Z,98705.84
2023-07-01T20:18:02.109Z,98705.28
2023-07-01T20:20:29.210Z,98694.94
2023-07-01T20:22:56.395Z,98706.59
2023-07-01T20:25:23.553Z,98702.00
2023-07-01T20:27:51.592Z,98695.59
2023-07-01T20:30:19.719Z,98698.81
2023-07-01T20:32:49.783Z,98700.28
2023-07-01T20:35:16.666Z,98695.22
2023-07-01T20:37:44.153Z,98685.91
2023-07-01T20:40:11.845Z,98691.34
2023-07-01T20:42:39.386Z,98690.34
2023-07-01T20:45:07.066Z,98681.56
2023-07-01T20:47:33.960Z,98681.66
2023-07-01T20:50:01.395Z,98680.72
2023-07-01T20:52:30.873Z,98679.03
2023-07-01T20:54:58.004Z,98680.25
2023-07-01T20:57:25.445Z,98678.66
2023-07-01T20:59:52.270Z,98674.53
2023-07-01T21:02:19.155Z,98679.06
2023-07-01T21:04:47.511Z,98681.72
2023-07-01T21:07:14.841Z,98674.03
2023-07-01T21:09:41.704Z,98671.47
2023-07-01T21:12:11.179Z,98669.03
2023-07-01T21:14:39.643Z,98665.75
2023-07-01T21:17:07.327Z,98666.78
2023-07-01T21:19:37.637Z,98671.13
2023-07-01T21:22:05.019Z,98668.59
2023-07-01T21:24:31.803Z,98672.06
2023-07-01T21:27:00.190Z,98668.59
2023-07-01T21:29:27.457Z,98662.53
2023-07-01T21:31:55.515Z,98660.00
2023-07-01T21:34:22.757Z,98659.16
2023-07-01T21:36:55.268Z,98659.06
2023-07-01T21:39:25.738Z,98653.91
2023-07-01T21:41:52.727Z,98652.22
2023-07-01T21:44:19.662Z,98653.06
2023-07-01T21:46:47.172Z,98647.00
2023-07-01T21:49:14.615Z,98646.16
2023-07-01T21:51:48.298Z,98642.69
2023-07-01T21:54:21.012Z,98641.97
2023-07-01T21:56:49.457Z,98650.81
2023-07-01T21:59:17.273Z,98647.31
2023-07-01T22:01:44.311Z,98645.91
2023-07-01T22:04:17.359Z,98646.56
2023-07-01T22:06:47.367Z,98639.59
2023-07-01T22:09:15.789Z,98640.53
2023-07-01T22:11:42.677Z,98638.66
2023-07-01T22:14:10.287Z,98629.81
2023-07-01T22:16:37.335Z,98632.63
2023-07-01T22:19:04.809Z,98636.13
2023-07-01T22:21:32.214Z,98633.59
2023-07-01T22:24:05.571Z,98625.97
2023-07-01T22:26:33.155Z,98623.50
2023-07-01T22:29:01.389Z,98617.28
2023-07-01T22:31:29.403Z,98617.28
2023-07-01T22:33:58.120Z,98614.75
2023-07-01T22:36:26.869Z,98608.75
2023-07-01T22:38:56.786Z,98613.25
2023-07-01T22:41:24.587Z,98612.34
2023-07-01T22:43:52.385Z,98610.53
2023-07-01T22:46:19.479Z,98617.41
2023-07-01T22:48:46.393Z,98608.56
2023-07-01T22:51:13.529Z,98600.75
2023-07-01T22:53:40.551Z,98600.84
2023-07-01T22:56:07.473Z,98594.81
2023-07-01T22:58:34.472Z,98593.06
2023-07-01T23:01:01.353Z,98582.44
2023-07-01T23:03:28.425Z,98592.97
2023-07-01T23:05:55.464Z,98586.84
2023-07-01T23:08:22.360Z,98584.22
2023-07-01T23:10:49.646Z,98578.94
2023-07-01T23:13:16.675Z,98576.22
2023-07-01T23:15:43.655Z,98572.00
2023-07-01T23:18:10.838Z,98578.00
2023-07-01T23:20:40.140Z,98572.44
2023-07-01T23:23:08.083Z,98566.34
2023-07-01T23:25:35.005Z,98562.00
2023-07-01T23:28:11.273Z,98558.63
2023-07-01T23:30:39.514Z,98561.47
2023-07-01T23:33:07.603Z,98553.56
2023-07-01T23:35:34.839Z,98547.41
2023-07-01T23:38:01.770Z,98552.63
2023-07-01T23:40:28.978Z,98547.25
2023-07-01T23:42:55.979Z,98545.47
2023-07-01T23:45:22.951Z,98544.63
2023-07-01T23:47:49.988Z,98535.88
2023-07-01T23:50:18.451Z,98539.44
2023-07-01T23:52:45.735Z,98535.13
2023-07-01T23:55:12.673Z,98537.94
2023-07-01T23:57:39.751Z,98545.75
